createdAt,value
2023-05-01T00:00:38.374Z,78.02
2023-05-01T00:03:06.426Z,78.37
2023-05-01T00:05:35.997Z,78.35
2023-05-01T00:08:05.105Z,78.14
2023-05-01T00:10:33.146Z,78.58
2023-05-01T00:13:01.141Z,78.91
2023-05-01T00:15:29.346Z,79.12
2023-05-01T00:17:57.530Z,78.90
2023-05-01T00:20:28.020Z,79.01
2023-05-01T00:22:58.616Z,79.24
2023-05-01T00:25:27.001Z,79.39
2023-05-01T00:27:54.993Z,79.32
2023-05-01T00:30:23.015Z,79.42
2023-05-01T00:32:51.433Z,80.34
2023-05-01T00:35:19.614Z,80.52
2023-05-01T00:37:48.083Z,80.59
2023-05-01T00:40:17.787Z,80.08
2023-05-01T00:42:48.514Z,80.53
2023-05-01T00:45:17.421Z,80.16
2023-05-01T00:47:45.850Z,80.33
2023-05-01T00:50:14.769Z,80.04
2023-05-01T00:52:43.034Z,80.00
2023-05-01T00:55:11.664Z,79.90
2023-05-01T00:57:41.253Z,79.53
2023-05-01T01:00:12.902Z,79.58
2023-05-01T01:02:41.236Z,79.66
2023-05-01T01:05:09.461Z,79.48
2023-05-01T01:07:42.929Z,79.43
2023-05-01T01:10:20.886Z,80.11
2023-05-01T01:12:57.983Z,79.97
2023-05-01T01:15:31.501Z,80.05
2023-05-01T01:18:09.427Z,79.89
2023-05-01T01:20:46.494Z,80.06
2023-05-01T01:23:44.063Z,80.60
2023-05-01T01:26:31.865Z,80.46
2023-05-01T01:29:28.029Z,80.94
2023-05-01T01:32:02.613Z,81.58
2023-05-01T01:34:35.382Z,80.91
2023-05-01T01:37:09.575Z,80.69
2023-05-01T01:39:46.018Z,80.69
2023-05-01T01:42:19.496Z,81.34
2023-05-01T01:44:51.967Z,81.19
2023-05-01T01:47:21.864Z,81.18
2023-05-01T01:49:54.004Z,80.95
2023-05-01T01:52:25.101Z,80.86
2023-05-01T01:54:58.611Z,81.08
2023-05-01T01:57:27.823Z,81.06
2023-05-01T01:59:57.304Z,81.08
2023-05-01T02:02:27.800Z,81.00
2023-05-01T02:04:59.656Z,80.77
2023-05-01T02:07:30.667Z,80.98
2023-05-01T02:09:59.812Z,80.72
2023-05-01T02:12:28.317Z,81.13
2023-05-01T02:14:57.372Z,81.29
2023-05-01T02:17:27.481Z,80.87
2023-05-01T02:19:58.309Z,81.23
2023-05-01T02:22:27.690Z,80.93
2023-05-01T02:24:59.956Z,80.42
2023-05-01T02:27:32.211Z,80.31
2023-05-01T02:30:00.294Z,80.01
2023-05-01T02:32:29.027Z,80.01
2023-05-01T02:34:59.992Z,80.36
2023-05-01T02:37:30.468Z,80.26
2023-05-01T02:39:59.346Z,81.09
2023-05-01T02:42:29.871Z,80.79
2023-05-01T02:45:01.551Z,80.68
2023-05-01T02:47:34.974Z,80.47
2023-05-01T02:50:05.252Z,80.44
2023-05-01T02:52:33.725Z,80.50
2023-05-01T02:55:20.649Z,80.81
2023-05-01T02:57:48.965Z,80.65
2023-05-01T03:00:17.044Z,80.81
2023-05-01T03:02:45.493Z,81.23
2023-05-01T03:05:15.052Z,81.29
2023-05-01T03:07:43.471Z,81.45
2023-05-01T03:10:12.584Z,81.50
2023-05-01T03:12:41.970Z,81.34
2023-05-01T03:15:11.983Z,81.38
2023-05-01T03:17:40.131Z,81.48
2023-05-01T03:20:11.013Z,82.10
2023-05-01T03:22:40.748Z,81.84
2023-05-01T03:25:09.751Z,81.98
2023-05-01T03:27:38.871Z,81.89
2023-05-01T03:30:08.926Z,81.82
2023-05-01T03:32:40.757Z,82.07
2023-05-01T03:35:15.364Z,82.01
2023-05-01T03:37:44.801Z,82.02
2023-05-01T03:40:19.071Z,82.40
2023-05-01T03:43:05.702Z,82.47
2023-05-01T03:45:34.405Z,82.88
2023-05-01T03:48:02.557Z,82.71
2023-05-01T03:50:32.083Z,82.88
2023-05-01T03:53:04.654Z,82.78
2023-05-01T03:55:32.850Z,83.13
2023-05-01T03:58:00.890Z,83.00
2023-05-01T04:00:29.590Z,82.95
2023-05-01T04:02:57.949Z,83.08
2023-05-01T04:05:26.366Z,82.91
2023-05-01T04:08:00.066Z,82.84
2023-05-01T04:10:29.592Z,82.79
2023-05-01T04:13:02.227Z,82.93
2023-05-01T04:15:30.244Z,82.62
2023-05-01T04:17:58.969Z,82.15
2023-05-01T04:20:27.081Z,82.43
2023-05-01T04:22:55.719Z,82.54
2023-05-01T04:25:23.752Z,82.02
2023-05-01T04:27:57.394Z,81.71
2023-05-01T04:30:25.459Z,81.72
2023-05-01T04:32:54.195Z,81.17
2023-05-01T04:35:22.557Z,81.03
2023-05-01T04:37:51.076Z,81.02
2023-05-01T04:40:19.187Z,80.75
2023-05-01T04:42:47.247Z,80.56
2023-05-01T04:45:17.696Z,80.51
2023-05-01T04:47:45.869Z,80.03
2023-05-01T04:50:14.476Z,79.82
2023-05-01T04:52:42.646Z,79.41
2023-05-01T04:55:11.518Z,79.43
2023-05-01T04:57:47.987Z,79.12
2023-05-01T05:00:19.129Z,78.46
2023-05-01T05:02:54.546Z,78.28
2023-05-01T05:05:22.670Z,77.71
2023-05-01T05:07:51.171Z,76.75
2023-05-01T05:10:59.231Z,75.76
2023-05-01T05:13:31.463Z,75.67
2023-05-01T05:16:04.010Z,75.03
2023-05-01T05:18:32.796Z,74.32
2023-05-01T05:21:04.799Z,73.38
2023-05-01T05:23:33.454Z,72.19
2023-05-01T05:26:02.894Z,71.08
2023-05-01T05:28:32.336Z,69.75
2023-05-01T05:31:00.660Z,68.69
2023-05-01T05:33:30.261Z,68.58
2023-05-01T05:36:00.116Z,68.33
2023-05-01T05:38:33.789Z,67.94
2023-05-01T05:41:03.034Z,66.56
2023-05-01T05:43:32.339Z,65.97
2023-05-01T05:46:01.335Z,65.44
2023-05-01T05:48:32.496Z,64.95
2023-05-01T05:51:00.569Z,63.91
2023-05-01T05:53:28.557Z,63.85
2023-05-01T05:55:56.633Z,63.51
2023-05-01T05:58:24.768Z,63.17
2023-05-01T06:00:55.812Z,62.52
2023-05-01T06:03:24.526Z,62.72
2023-05-01T06:05:57.619Z,62.14
2023-05-01T06:08:25.745Z,62.25
2023-05-01T06:10:53.741Z,61.02
2023-05-01T06:13:22.177Z,61.35
2023-05-01T06:15:51.153Z,60.91
2023-05-01T06:18:19.488Z,60.48
2023-05-01T06:20:47.913Z,59.97
2023-05-01T06:23:17.297Z,60.09
2023-05-01T06:26:15.304Z,59.85
2023-05-01T06:28:43.398Z,59.92
2023-05-01T06:31:11.615Z,59.04
2023-05-01T06:33:45.435Z,58.75
2023-05-01T06:36:33.714Z,58.69
2023-05-01T06:39:03.279Z,57.99
2023-05-01T06:41:32.866Z,57.49
2023-05-01T06:44:00.853Z,57.44
2023-05-01T06:46:29.047Z,56.96
2023-05-01T06:48:57.025Z,56.46
2023-05-01T06:51:25.079Z,56.47
2023-05-01T06:53:53.246Z,55.87
2023-05-01T06:56:22.730Z,55.46
2023-05-01T06:58:50.789Z,54.89
2023-05-01T07:01:18.901Z,54.75
2023-05-01T07:03:46.921Z,54.87
2023-05-01T07:06:15.167Z,54.80
2023-05-01T07:08:43.222Z,54.16
2023-05-01T07:11:11.277Z,54.17
2023-05-01T07:13:40.773Z,53.00
2023-05-01T07:16:09.160Z,53.54
2023-05-01T07:18:37.893Z,53.72
2023-05-01T07:21:06.891Z,53.53
2023-05-01T07:23:34.931Z,52.67
2023-05-01T07:26:02.882Z,52.13
2023-05-01T07:28:30.926Z,52.72
2023-05-01T07:31:01.628Z,52.67
2023-05-01T07:33:29.685Z,52.36
2023-05-01T07:35:58.045Z,52.08
2023-05-01T07:38:26.334Z,52.10
2023-05-01T07:40:54.533Z,51.94
2023-05-01T07:43:22.580Z,51.60
2023-05-01T07:45:58.332Z,50.04
2023-05-01T07:48:28.779Z,50.86
2023-05-01T07:50:57.140Z,49.96
2023-05-01T07:53:25.375Z,50.80
2023-05-01T07:55:53.400Z,50.46
2023-05-01T07:58:21.413Z,50.43
2023-05-01T08:00:49.448Z,50.10
2023-05-01T08:03:17.629Z,50.05
2023-05-01T08:05:47.199Z,49.50
2023-05-01T08:08:20.577Z,48.97
2023-05-01T08:10:48.901Z,48.98
2023-05-01T08:13:17.213Z,48.68
2023-05-01T08:15:47.168Z,48.62
2023-05-01T08:18:20.431Z,48.10
2023-05-01T08:20:50.867Z,48.61
2023-05-01T08:23:18.922Z,47.83
2023-05-01T08:25:50.843Z,48.01
2023-05-01T08:28:20.878Z,48.19
2023-05-01T08:30:50.315Z,48.54
2023-05-01T08:33:18.438Z,48.32
2023-05-01T08:35:46.478Z,48.02
2023-05-01T08:38:15.924Z,47.43
2023-05-01T08:40:52.332Z,46.99
2023-05-01T08:43:20.346Z,45.06
2023-05-01T08:45:49.071Z,46.73
2023-05-01T08:48:19.108Z,47.23
2023-05-01T08:50:48.600Z,46.56
2023-05-01T08:53:19.898Z,46.39
2023-05-01T08:55:49.701Z,46.06
2023-05-01T08:58:19.264Z,46.37
2023-05-01T09:00:48.352Z,46.41
2023-05-01T09:03:18.002Z,46.34
2023-05-01T09:05:46.794Z,46.14
2023-05-01T09:08:15.087Z,46.20
2023-05-01T09:10:47.609Z,44.86
2023-05-01T09:13:15.832Z,45.81
2023-05-01T09:15:44.671Z,45.77
2023-05-01T09:18:12.835Z,44.83
2023-05-01T09:20:41.786Z,44.48
2023-05-01T09:23:09.810Z,44.77
2023-05-01T09:25:38.667Z,45.12
2023-05-01T09:28:08.539Z,44.45
2023-05-01T09:30:38.151Z,44.57
2023-05-01T09:33:10.937Z,44.17
2023-05-01T09:35:53.461Z,42.39
2023-05-01T09:38:23.387Z,43.74
2023-05-01T09:40:51.812Z,43.92
2023-05-01T09:43:28.605Z,42.41
2023-05-01T09:46:05.442Z,42.49
2023-05-01T09:48:35.679Z,43.42
2023-05-01T09:51:21.657Z,41.86
2023-05-01T09:53:50.245Z,43.75
2023-05-01T09:56:18.491Z,43.40
2023-05-01T09:58:48.285Z,43.19
2023-05-01T10:01:16.694Z,43.61
2023-05-01T10:03:46.043Z,43.76
2023-05-01T10:06:28.508Z,42.45
2023-05-01T10:08:56.754Z,43.71
2023-05-01T10:11:25.037Z,43.48
2023-05-01T10:14:09.672Z,41.58
2023-05-01T10:16:39.189Z,42.45
2023-05-01T10:19:07.790Z,43.48
2023-05-01T10:21:36.455Z,43.47
2023-05-01T10:24:06.005Z,42.79
2023-05-01T10:26:35.665Z,43.45
2023-05-01T10:29:04.520Z,43.03
2023-05-01T10:31:34.082Z,43.46
2023-05-01T10:34:02.817Z,43.87
2023-05-01T10:36:39.272Z,43.34
2023-05-01T10:39:07.581Z,43.45
2023-05-01T10:42:10.847Z,41.45
2023-05-01T10:44:39.108Z,42.70
2023-05-01T10:47:44.269Z,39.96
2023-05-01T10:50:16.050Z,41.17
2023-05-01T10:53:18.286Z,37.95
2023-05-01T10:55:47.798Z,40.15
2023-05-01T10:58:37.713Z,39.92
2023-05-01T11:01:31.915Z,37.96
2023-05-01T11:04:01.535Z,39.61
2023-05-01T11:06:31.684Z,39.26
2023-05-01T11:09:00.750Z,39.81
2023-05-01T11:11:50.166Z,38.41
2023-05-01T11:14:19.087Z,39.60
2023-05-01T11:16:49.195Z,39.07
2023-05-01T11:19:52.457Z,36.99
2023-05-01T11:22:22.142Z,38.24
2023-05-01T11:24:50.443Z,38.87
2023-05-01T11:27:18.525Z,38.07
2023-05-01T11:29:49.801Z,37.22
2023-05-01T11:32:25.014Z,35.81
2023-05-01T11:34:54.378Z,37.47
2023-05-01T11:37:40.958Z,34.86
2023-05-01T11:40:20.697Z,34.99
2023-05-01T11:42:48.903Z,36.71
2023-05-01T11:45:17.309Z,36.39
2023-05-01T11:47:45.520Z,36.15
2023-05-01T11:50:13.733Z,35.77
2023-05-01T11:52:49.357Z,35.39
2023-05-01T11:55:17.792Z,35.61
2023-05-01T11:57:47.841Z,35.66
2023-05-01T12:00:17.222Z,35.44
2023-05-01T12:02:57.697Z,33.75
2023-05-01T12:05:26.686Z,35.50
2023-05-01T12:08:12.829Z,34.03
2023-05-01T12:10:44.392Z,35.25
2023-05-01T12:13:13.837Z,35.31
2023-05-01T12:15:45.282Z,35.24
2023-05-01T12:18:14.215Z,35.66
2023-05-01T12:20:43.775Z,35.19
2023-05-01T12:23:16.473Z,35.36
2023-05-01T12:25:46.024Z,35.45
2023-05-01T12:28:17.590Z,34.87
2023-05-01T12:30:46.882Z,34.69
2023-05-01T12:33:16.591Z,34.81
2023-05-01T12:35:46.804Z,34.11
2023-05-01T12:38:17.786Z,33.96
2023-05-01T12:40:54.437Z,32.69
2023-05-01T12:43:23.742Z,32.74
2023-05-01T12:45:54.055Z,33.06
2023-05-01T12:48:22.602Z,33.74
2023-05-01T12:50:54.983Z,34.65
2023-05-01T12:53:25.888Z,33.45
2023-05-01T12:55:55.693Z,33.62
2023-05-01T12:58:24.305Z,33.53
2023-05-01T13:00:53.950Z,32.54
2023-05-01T13:03:25.644Z,32.40
2023-05-01T13:05:55.371Z,32.20
2023-05-01T13:08:32.577Z,31.42
2023-05-01T13:11:01.887Z,31.95
2023-05-01T13:13:31.814Z,32.07
2023-05-01T13:16:09.107Z,31.96
2023-05-01T13:18:45.436Z,32.58
2023-05-01T13:21:16.278Z,32.04
2023-05-01T13:23:54.067Z,31.76
2023-05-01T13:26:29.013Z,32.25
2023-05-01T13:28:57.738Z,32.16
2023-05-01T13:31:25.770Z,31.23
2023-05-01T13:33:55.365Z,30.73
2023-05-01T13:36:26.316Z,29.47
2023-05-01T13:38:57.715Z,29.53
2023-05-01T13:41:27.577Z,29.71
2023-05-01T13:43:56.994Z,29.80
2023-05-01T13:46:27.693Z,29.85
2023-05-01T13:48:56.367Z,30.30
2023-05-01T13:51:25.940Z,30.32
2023-05-01T13:53:54.555Z,30.41
2023-05-01T13:56:23.963Z,30.45
2023-05-01T13:58:52.032Z,30.50
2023-05-01T14:01:21.670Z,30.39
2023-05-01T14:03:50.568Z,31.47
2023-05-01T14:06:20.207Z,31.29
2023-05-01T14:08:50.262Z,31.79
2023-05-01T14:11:20.128Z,31.79
2023-05-01T14:13:52.109Z,31.52
2023-05-01T14:16:25.927Z,31.33
2023-05-01T14:18:56.912Z,30.92
2023-05-01T14:21:28.162Z,31.73
2023-05-01T14:23:57.146Z,32.48
2023-05-01T14:26:25.224Z,32.29
2023-05-01T14:28:54.710Z,32.81
2023-05-01T14:31:27.545Z,32.44
2023-05-01T14:33:57.899Z,32.35
2023-05-01T14:36:28.425Z,32.59
2023-05-01T14:38:57.505Z,32.37
2023-05-01T14:41:25.649Z,32.68
2023-05-01T14:43:55.208Z,32.35
2023-05-01T14:46:30.071Z,31.93
2023-05-01T14:48:58.674Z,32.02
2023-05-01T14:51:27.333Z,32.82
2023-05-01T14:53:56.099Z,32.66
2023-05-01T14:56:24.754Z,31.46
2023-05-01T14:58:54.276Z,32.27
2023-05-01T15:01:22.829Z,31.89
2023-05-01T15:03:50.973Z,32.18
2023-05-01T15:06:19.294Z,32.42
2023-05-01T15:08:47.410Z,32.08
2023-05-01T15:11:16.708Z,32.22
2023-05-01T15:13:45.252Z,32.99
2023-05-01T15:16:14.605Z,32.70
2023-05-01T15:18:42.942Z,33.42
2023-05-01T15:21:10.894Z,33.42
2023-05-01T15:23:38.906Z,33.47
2023-05-01T15:26:07.158Z,33.72
2023-05-01T15:28:35.231Z,33.78
2023-05-01T15:31:03.529Z,33.86
2023-05-01T15:33:32.960Z,34.26
2023-05-01T15:36:01.018Z,34.33
2023-05-01T15:38:30.192Z,34.62
2023-05-01T15:40:58.389Z,34.90
2023-05-01T15:43:26.532Z,34.80
2023-05-01T15:45:57.916Z,35.34
2023-05-01T15:48:26.331Z,35.62
2023-05-01T15:50:55.729Z,35.50
2023-05-01T15:53:24.380Z,35.72
2023-05-01T15:55:53.321Z,36.22
2023-05-01T15:58:24.754Z,35.77
2023-05-01T16:00:52.848Z,36.10
2023-05-01T16:03:21.042Z,35.63
2023-05-01T16:05:49.134Z,35.74
2023-05-01T16:08:19.179Z,35.79
2023-05-01T16:10:47.350Z,35.85
2023-05-01T16:13:15.560Z,35.64
2023-05-01T16:15:43.592Z,35.74
2023-05-01T16:18:19.754Z,35.04
2023-05-01T16:20:47.836Z,35.10
2023-05-01T16:23:16.524Z,35.11
2023-05-01T16:25:46.627Z,34.86
2023-05-01T16:28:17.560Z,34.86
2023-05-01T16:30:46.212Z,35.15
2023-05-01T16:33:18.990Z,35.11
2023-05-01T16:35:49.672Z,35.53
2023-05-01T16:38:18.598Z,35.80
2023-05-01T16:40:49.210Z,35.66
2023-05-01T16:43:17.433Z,35.74
2023-05-01T16:45:46.716Z,35.92
2023-05-01T16:48:20.359Z,35.91
2023-05-01T16:50:48.416Z,35.21
2023-05-01T16:53:16.677Z,35.76
2023-05-01T16:55:45.534Z,35.60
2023-05-01T16:58:15.155Z,35.85
2023-05-01T17:00:43.580Z,35.91
2023-05-01T17:03:11.658Z,35.97
2023-05-01T17:05:39.745Z,36.25
2023-05-01T17:08:07.842Z,36.57
2023-05-01T17:10:36.443Z,37.03
2023-05-01T17:13:04.475Z,36.56
2023-05-01T17:15:33.870Z,37.58
2023-05-01T17:18:01.994Z,38.60
2023-05-01T17:20:30.084Z,40.24
2023-05-01T17:22:58.090Z,41.17
2023-05-01T17:25:26.201Z,41.42
2023-05-01T17:27:54.856Z,41.95
2023-05-01T17:30:22.926Z,41.72
2023-05-01T17:32:52.455Z,42.60
2023-05-01T17:35:20.594Z,42.42
2023-05-01T17:37:48.582Z,42.85
2023-05-01T17:40:16.638Z,43.50
2023-05-01T17:42:45.643Z,43.93
2023-05-01T17:45:13.704Z,44.09
2023-05-01T17:47:43.019Z,44.66
2023-05-01T17:50:14.068Z,44.46
2023-05-01T17:52:43.394Z,44.32
2023-05-01T17:55:11.812Z,44.74
2023-05-01T17:57:40.439Z,44.88
2023-05-01T18:00:11.227Z,44.76
2023-05-01T18:02:44.773Z,45.21
2023-05-01T18:05:14.604Z,45.43
2023-05-01T18:07:42.664Z,45.50
2023-05-01T18:10:11.783Z,45.48
2023-05-01T18:12:39.980Z,45.51
2023-05-01T18:15:08.893Z,45.80
2023-05-01T18:17:36.942Z,46.06
2023-05-01T18:20:05.491Z,46.44
2023-05-01T18:22:34.902Z,46.85
2023-05-01T18:25:03.193Z,47.00
2023-05-01T18:27:31.191Z,48.03
2023-05-01T18:29:59.621Z,48.00
2023-05-01T18:32:43.324Z,47.66
2023-05-01T18:35:15.128Z,47.72
2023-05-01T18:37:44.571Z,48.16
2023-05-01T18:40:13.348Z,47.87
2023-05-01T18:42:42.315Z,47.99
2023-05-01T18:45:11.053Z,48.54
2023-05-01T18:47:39.273Z,48.61
2023-05-01T18:50:08.894Z,48.83
2023-05-01T18:52:37.842Z,49.20
2023-05-01T18:55:08.116Z,49.78
2023-05-01T18:57:36.283Z,49.82
2023-05-01T19:00:04.843Z,50.15
2023-05-01T19:02:32.916Z,49.90
2023-05-01T19:05:01.055Z,50.42
2023-05-01T19:07:29.162Z,51.26
2023-05-01T19:09:57.646Z,51.09
2023-05-01T19:12:27.212Z,51.33
2023-05-01T19:14:55.374Z,51.47
2023-05-01T19:17:23.465Z,51.60
2023-05-01T19:19:51.520Z,52.47
2023-05-01T19:22:19.654Z,52.17
2023-05-01T19:24:47.670Z,53.20
2023-05-01T19:27:15.769Z,54.11
2023-05-01T19:29:46.038Z,55.15
2023-05-01T19:32:14.419Z,55.08
2023-05-01T19:34:42.794Z,55.49
2023-05-01T19:37:10.824Z,57.25
2023-05-01T19:39:40.044Z,56.46
2023-05-01T19:42:08.172Z,58.03
2023-05-01T19:44:36.225Z,58.06
2023-05-01T19:47:05.611Z,58.43
2023-05-01T19:49:33.625Z,58.64
2023-05-01T19:52:01.837Z,59.64
2023-05-01T19:54:29.874Z,59.79
2023-05-01T19:56:58.484Z,60.06
2023-05-01T19:59:26.817Z,60.21
2023-05-01T20:01:55.161Z,60.13
2023-05-01T20:04:24.787Z,60.36
2023-05-01T20:06:52.864Z,60.60
2023-05-01T20:09:20.855Z,61.31
2023-05-01T20:11:48.937Z,62.78
2023-05-01T20:14:17.007Z,62.66
2023-05-01T20:16:45.114Z,63.75
2023-05-01T20:19:13.689Z,63.60
2023-05-01T20:21:43.097Z,64.00
2023-05-01T20:24:11.459Z,65.04
2023-05-01T20:26:39.535Z,64.72
2023-05-01T20:29:09.170Z,66.66
2023-05-01T20:31:37.477Z,66.25
2023-05-01T20:34:05.769Z,66.64
2023-05-01T20:36:33.820Z,66.94
2023-05-01T20:39:03.361Z,67.44
2023-05-01T20:41:31.425Z,66.84
2023-05-01T20:43:59.582Z,67.73
2023-05-01T20:46:28.364Z,67.58
2023-05-01T20:48:56.471Z,67.92
2023-05-01T20:51:27.293Z,68.05
2023-05-01T20:53:55.332Z,68.19
2023-05-01T20:56:24.814Z,68.35
2023-05-01T20:58:53.188Z,68.72
2023-05-01T21:01:21.346Z,69.15
2023-05-01T21:03:49.547Z,69.24
2023-05-01T21:06:17.778Z,71.15
2023-05-01T21:08:46.250Z,69.79
2023-05-01T21:11:14.329Z,70.57
2023-05-01T21:13:43.718Z,70.53
2023-05-01T21:16:15.769Z,70.94
2023-05-01T21:18:43.982Z,70.59
2023-05-01T21:21:14.941Z,71.47
2023-05-01T21:23:48.379Z,72.51
2023-05-01T21:26:16.708Z,71.46
2023-05-01T21:28:46.105Z,71.44
2023-05-01T21:31:14.953Z,73.11
2023-05-01T21:33:45.816Z,72.63
2023-05-01T21:36:18.049Z,72.20
2023-05-01T21:38:46.899Z,71.89
2023-05-01T21:41:15.651Z,72.59
2023-05-01T21:43:45.576Z,72.06
2023-05-01T21:46:17.526Z,72.53
2023-05-01T21:48:47.801Z,72.74
2023-05-01T21:51:15.835Z,72.86
2023-05-01T21:53:43.994Z,72.58
2023-05-01T21:56:13.256Z,72.28
2023-05-01T21:58:41.446Z,72.33
2023-05-01T22:01:13.981Z,72.90
2023-05-01T22:03:43.482Z,72.43
2023-05-01T22:06:11.575Z,72.53
2023-05-01T22:08:39.692Z,72.64
2023-05-01T22:11:08.609Z,72.83
2023-05-01T22:13:36.699Z,73.14
2023-05-01T22:16:04.952Z,73.31
2023-05-01T22:18:34.657Z,73.16
2023-05-01T22:21:03.464Z,73.62
2023-05-01T22:23:31.549Z,73.68
2023-05-01T22:26:00.780Z,73.14
2023-05-01T22:28:29.085Z,73.45
2023-05-01T22:30:57.154Z,73.30
2023-05-01T22:33:25.367Z,73.22
2023-05-01T22:35:54.753Z,73.56
2023-05-01T22:38:22.931Z,73.33
2023-05-01T22:40:51.103Z,73.13
2023-05-01T22:43:19.428Z,72.94
2023-05-01T22:45:47.481Z,72.83
2023-05-01T22:48:15.552Z,72.89
2023-05-01T22:50:43.847Z,72.62
2023-05-01T22:53:13.263Z,72.61
2023-05-01T22:55:41.270Z,72.53
2023-05-01T22:58:09.314Z,72.28
2023-05-01T23:00:37.508Z,72.20
2023-05-01T23:03:05.551Z,72.65
2023-05-01T23:05:33.771Z,72.41
2023-05-01T23:08:02.051Z,72.38
2023-05-01T23:10:33.493Z,72.55
2023-05-01T23:13:01.858Z,72.51
2023-05-01T23:15:29.843Z,72.52
2023-05-01T23:17:57.930Z,72.39
2023-05-01T23:20:26.128Z,71.93
2023-05-01T23:22:54.740Z,72.39
2023-05-01T23:25:25.680Z,72.43
2023-05-01T23:27:56.507Z,72.69
2023-05-01T23:30:24.862Z,72.28
2023-05-01T23:32:53.195Z,72.73
2023-05-01T23:35:24.682Z,72.52
2023-05-01T23:37:53.879Z,72.46
2023-05-01T23:40:22.214Z,72.01
2023-05-01T23:42:50.504Z,71.91
2023-05-01T23:45:20.280Z,71.65
2023-05-01T23:47:48.359Z,71.55
2023-05-01T23:50:16.491Z,71.32
2023-05-01T23:52:44.520Z,71.02
2023-05-01T23:55:12.608Z,70.83
2023-05-01T23:57:40.678Z,70.67
